createdAt,value
2019-02-18T00:00:00.949Z,3.50
2019-02-18T00:02:31.579Z,3.40
2019-02-18T00:05:00.815Z,3.30
2019-02-18T00:07:30.054Z,3.20
2019-02-18T00:09:59.189Z,3.20
2019-02-18T00:12:28.496Z,3.10
2019-02-18T00:14:57.869Z,3.10
2019-02-18T00:17:27.366Z,3.10
2019-02-18T00:19:56.887Z,3.20
2019-02-18T00:22:26.597Z,3.30
2019-02-18T00:24:55.796Z,3.30
2019-02-18T00:27:25.000Z,3.40
2019-02-18T00:29:54.237Z,3.50
2019-02-18T00:32:23.545Z,3.60
2019-02-18T00:34:52.707Z,3.70
2019-02-18T00:37:24.351Z,3.70
2019-02-18T00:39:53.207Z,3.70
2019-02-18T00:42:22.840Z,3.70
2019-02-18T00:44:52.444Z,3.60
2019-02-18T00:47:21.676Z,3.60
2019-02-18T00:49:50.903Z,3.60
2019-02-18T00:52:20.039Z,3.60
2019-02-18T00:54:50.183Z,3.60
2019-02-18T00:57:19.430Z,3.50
2019-02-18T00:59:48.584Z,3.50
2019-02-18T01:02:17.740Z,3.40
2019-02-18T01:04:46.956Z,3.40
2019-02-18T01:07:16.449Z,3.40
2019-02-18T01:09:45.677Z,3.40
2019-02-18T01:12:14.801Z,3.50
2019-02-18T01:14:44.252Z,3.50
2019-02-18T01:17:13.412Z,3.50
2019-02-18T01:19:42.846Z,3.50
2019-02-18T01:22:12.020Z,3.50
2019-02-18T01:24:42.973Z,3.50
2019-02-18T01:27:12.197Z,3.60
2019-02-18T01:29:41.336Z,3.50
2019-02-18T01:32:10.758Z,3.50
2019-02-18T01:34:40.015Z,3.40
2019-02-18T01:37:09.203Z,3.30
2019-02-18T01:39:38.487Z,3.10
2019-02-18T01:42:07.647Z,2.90
2019-02-18T01:44:37.111Z,2.80
2019-02-18T01:47:06.538Z,2.70
2019-02-18T01:49:35.823Z,2.60
2019-02-18T01:52:05.081Z,2.60
2019-02-18T01:54:34.355Z,2.50
2019-02-18T01:57:03.907Z,2.40
2019-02-18T01:59:33.021Z,2.40
2019-02-18T02:02:02.297Z,2.30
2019-02-18T02:04:31.432Z,2.30
2019-02-18T02:07:00.656Z,2.40
2019-02-18T02:09:29.919Z,2.40
2019-02-18T02:11:59.112Z,2.50
2019-02-18T02:14:28.439Z,2.50
2019-02-18T02:16:57.607Z,2.50
2019-02-18T02:19:26.831Z,2.50
2019-02-18T02:21:56.416Z,2.50
2019-02-18T02:24:25.564Z,2.40
2019-02-18T02:26:54.704Z,2.40
2019-02-18T02:29:23.833Z,2.40
2019-02-18T02:31:53.004Z,2.50
2019-02-18T02:34:22.254Z,2.50
2019-02-18T02:36:51.408Z,2.50
2019-02-18T02:39:20.583Z,2.50
2019-02-18T02:41:50.062Z,2.40
2019-02-18T02:44:19.189Z,2.50
2019-02-18T02:46:48.315Z,2.40
2019-02-18T02:49:17.495Z,2.40
2019-02-18T02:51:46.751Z,2.40
2019-02-18T02:54:15.978Z,2.40
2019-02-18T02:56:45.374Z,2.50
2019-02-18T02:59:14.614Z,2.50
2019-02-18T03:01:43.900Z,2.50
2019-02-18T03:04:13.093Z,2.50
2019-02-18T03:06:43.467Z,2.50
2019-02-18T03:09:13.002Z,2.40
2019-02-18T03:11:42.147Z,2.40
2019-02-18T03:14:12.076Z,2.30
2019-02-18T03:16:41.400Z,2.20
2019-02-18T03:19:10.520Z,2.20
2019-02-18T03:21:39.725Z,2.10
2019-02-18T03:24:08.956Z,2.00
2019-02-18T03:26:38.146Z,2.00
2019-02-18T03:29:44.477Z,2.00
2019-02-18T03:32:13.626Z,2.00
2019-02-18T03:34:45.147Z,1.90
2019-02-18T03:37:14.418Z,1.90
2019-02-18T03:39:44.029Z,1.80
2019-02-18T03:42:13.214Z,1.70
2019-02-18T03:44:42.473Z,1.60
2019-02-18T03:47:11.640Z,1.50
2019-02-18T03:49:40.929Z,1.30
2019-02-18T03:52:10.382Z,1.20
2019-02-18T03:54:39.895Z,1.20
2019-02-18T03:57:09.123Z,1.20
2019-02-18T03:59:38.322Z,1.30
2019-02-18T04:02:07.531Z,1.30
2019-02-18T04:04:37.316Z,1.40
2019-02-18T04:07:07.356Z,1.50
2019-02-18T04:09:36.488Z,1.60
2019-02-18T04:12:05.899Z,1.70
2019-02-18T04:14:35.054Z,1.80
2019-02-18T04:17:05.130Z,1.80
2019-02-18T04:19:34.551Z,1.70
2019-02-18T04:22:03.766Z,1.70
2019-02-18T04:24:32.945Z,1.60
2019-02-18T04:27:02.127Z,1.50
2019-02-18T04:29:31.511Z,1.40
2019-02-18T04:32:00.938Z,1.40
2019-02-18T04:34:30.148Z,1.30
2019-02-18T04:36:59.334Z,1.20
2019-02-18T04:39:28.503Z,1.20
2019-02-18T04:41:58.012Z,1.10
2019-02-18T04:44:27.213Z,1.10
2019-02-18T04:46:56.509Z,1.10
2019-02-18T04:49:26.140Z,1.10
2019-02-18T04:51:55.476Z,1.10
2019-02-18T04:54:28.200Z,1.00
2019-02-18T04:56:57.347Z,1.00
2019-02-18T04:59:26.825Z,0.90
2019-02-18T05:01:56.178Z,0.90
2019-02-18T05:04:26.745Z,0.90
2019-02-18T05:06:55.891Z,0.90
2019-02-18T05:09:25.145Z,0.90
2019-02-18T05:11:54.299Z,0.90
2019-02-18T05:14:23.550Z,0.90
2019-02-18T05:16:52.730Z,0.90
2019-02-18T05:19:23.043Z,0.90
2019-02-18T05:21:53.091Z,1.00
2019-02-18T05:24:28.026Z,1.00
2019-02-18T05:26:57.827Z,1.00
2019-02-18T05:29:27.018Z,1.10
2019-02-18T05:31:56.206Z,1.10
2019-02-18T05:34:25.427Z,1.10
2019-02-18T05:36:54.693Z,1.10
2019-02-18T05:39:23.940Z,1.20
2019-02-18T05:41:53.361Z,1.20
2019-02-18T05:44:22.650Z,1.30
2019-02-18T05:46:52.032Z,1.30
2019-02-18T05:49:21.250Z,1.30
2019-02-18T05:51:50.668Z,1.30
2019-02-18T05:54:19.790Z,1.30
2019-02-18T05:56:48.968Z,1.20
2019-02-18T05:59:18.122Z,1.20
2019-02-18T06:01:47.603Z,1.10
2019-02-18T06:04:16.794Z,1.10
2019-02-18T06:06:46.286Z,1.10
2019-02-18T06:09:15.452Z,1.10
2019-02-18T06:11:44.606Z,1.10
2019-02-18T06:14:13.736Z,1.00
2019-02-18T06:16:43.280Z,1.00
2019-02-18T06:19:12.418Z,1.00
2019-02-18T06:21:41.716Z,1.00
2019-02-18T06:24:10.845Z,1.00
2019-02-18T06:26:40.024Z,1.00
2019-02-18T06:29:09.519Z,1.00
2019-02-18T06:31:38.916Z,1.00
2019-02-18T06:34:08.218Z,1.10
2019-02-18T06:36:37.379Z,1.10
2019-02-18T06:39:06.999Z,1.20
2019-02-18T06:41:36.573Z,1.10
2019-02-18T06:44:05.787Z,1.10
2019-02-18T06:46:38.280Z,1.10
2019-02-18T06:49:21.947Z,1.00
2019-02-18T06:51:51.424Z,1.00
2019-02-18T06:54:20.968Z,1.00
2019-02-18T06:57:11.931Z,1.10
2019-02-18T06:59:45.208Z,1.10
2019-02-18T07:02:27.599Z,1.10
2019-02-18T07:05:04.456Z,1.20
2019-02-18T07:07:51.294Z,1.20
2019-02-18T07:10:30.348Z,1.20
2019-02-18T07:12:59.572Z,1.20
2019-02-18T07:15:28.710Z,1.20
2019-02-18T07:17:57.925Z,1.30
2019-02-18T07:20:27.135Z,1.30
2019-02-18T07:22:56.343Z,1.40
2019-02-18T07:25:25.509Z,1.40
2019-02-18T07:27:54.927Z,1.50
2019-02-18T07:30:24.196Z,1.50
2019-02-18T07:32:53.497Z,1.60
2019-02-18T07:35:22.631Z,1.70
2019-02-18T07:37:51.812Z,1.70
2019-02-18T07:40:20.985Z,1.80
2019-02-18T07:42:50.563Z,1.90
2019-02-18T07:45:19.759Z,2.00
2019-02-18T07:47:49.021Z,2.00
2019-02-18T07:50:20.803Z,2.10
2019-02-18T07:52:49.068Z,2.20
2019-02-18T07:55:18.800Z,2.20
2019-02-18T07:57:48.103Z,2.30
2019-02-18T08:00:17.984Z,2.40
2019-02-18T08:02:47.237Z,2.50
2019-02-18T08:05:16.580Z,2.50
2019-02-18T08:07:45.870Z,2.60
2019-02-18T08:10:15.033Z,2.70
2019-02-18T08:12:44.497Z,2.70
2019-02-18T08:15:13.876Z,2.80
2019-02-18T08:17:43.173Z,2.90
2019-02-18T08:20:12.468Z,2.90
2019-02-18T08:22:42.148Z,3.00
2019-02-18T08:25:11.817Z,3.10
2019-02-18T08:27:41.834Z,3.20
2019-02-18T08:30:12.600Z,3.20
2019-02-18T08:32:42.027Z,3.30
2019-02-18T08:35:11.694Z,3.40
2019-02-18T08:37:41.332Z,3.50
2019-02-18T08:40:11.311Z,3.50
2019-02-18T08:42:40.503Z,3.50
2019-02-18T08:45:11.120Z,3.60
2019-02-18T08:47:40.417Z,3.60
2019-02-18T08:50:10.867Z,3.70
2019-02-18T08:52:40.107Z,3.80
2019-02-18T08:55:10.870Z,3.80
2019-02-18T08:57:40.108Z,3.90
2019-02-18T09:00:13.065Z,4.00
2019-02-18T09:02:42.731Z,4.10
2019-02-18T09:05:11.949Z,4.20
2019-02-18T09:07:41.113Z,4.30
2019-02-18T09:10:11.351Z,4.40
2019-02-18T09:12:40.515Z,4.50
2019-02-18T09:15:10.108Z,4.70
2019-02-18T09:17:39.298Z,4.80
2019-02-18T09:20:09.417Z,4.90
2019-02-18T09:22:49.661Z,5.00
2019-02-18T09:25:21.727Z,5.10
2019-02-18T09:27:51.750Z,5.20
2019-02-18T09:30:25.068Z,5.30
2019-02-18T09:32:54.232Z,5.40
2019-02-18T09:35:23.523Z,5.50
2019-02-18T09:37:53.007Z,5.60
2019-02-18T09:40:22.173Z,5.60
2019-02-18T09:42:51.782Z,5.80
2019-02-18T09:45:21.061Z,5.90
2019-02-18T09:47:50.577Z,6.00
2019-02-18T09:50:22.667Z,6.20
2019-02-18T09:52:51.920Z,6.40
2019-02-18T09:55:21.172Z,6.50
2019-02-18T09:57:50.749Z,6.70
2019-02-18T10:00:20.075Z,6.80
2019-02-18T10:02:49.765Z,7.00
2019-02-18T10:05:18.922Z,7.10
2019-02-18T10:07:48.329Z,7.20
2019-02-18T10:10:17.652Z,7.30
2019-02-18T10:12:47.068Z,7.50
2019-02-18T10:15:16.204Z,7.60
2019-02-18T10:17:45.373Z,7.70
2019-02-18T10:20:14.601Z,7.80
2019-02-18T10:22:43.933Z,7.90
2019-02-18T10:25:13.205Z,8.10
2019-02-18T10:27:42.373Z,8.20
2019-02-18T10:30:11.837Z,8.40
2019-02-18T10:32:41.062Z,8.60
2019-02-18T10:35:10.811Z,8.70
2019-02-18T10:37:40.723Z,8.90
2019-02-18T10:40:10.374Z,9.10
2019-02-18T10:42:40.817Z,9.30
2019-02-18T10:45:10.763Z,9.50
2019-02-18T10:47:40.300Z,9.70
2019-02-18T10:50:10.032Z,9.70
2019-02-18T10:52:39.539Z,9.90
2019-02-18T10:55:09.571Z,10.00
2019-02-18T10:57:39.351Z,10.30
2019-02-18T11:00:10.513Z,10.50
2019-02-18T11:02:39.775Z,10.70
2019-02-18T11:05:09.320Z,10.90
2019-02-18T11:07:38.939Z,11.20
2019-02-18T11:10:11.061Z,11.30
2019-02-18T11:12:40.356Z,11.50
2019-02-18T11:15:10.413Z,11.70
2019-02-18T11:17:39.971Z,11.90
2019-02-18T11:20:10.024Z,12.00
2019-02-18T11:22:39.243Z,12.00
2019-02-18T11:25:09.712Z,12.00
2019-02-18T11:27:38.923Z,12.40
2019-02-18T11:30:10.691Z,15.60
2019-02-18T11:32:39.903Z,19.40
2019-02-18T11:35:09.503Z,22.40
2019-02-18T11:37:39.295Z,24.10
2019-02-18T11:40:10.602Z,25.40
2019-02-18T11:42:39.813Z,26.60
2019-02-18T11:45:10.645Z,26.90
2019-02-18T11:47:39.780Z,27.90
2019-02-18T11:50:10.178Z,28.50
2019-02-18T11:52:39.905Z,29.00
2019-02-18T11:55:09.602Z,29.20
2019-02-18T11:57:39.145Z,29.20
2019-02-18T12:00:09.344Z,29.50
2019-02-18T12:02:38.896Z,29.90
2019-02-18T12:05:08.954Z,30.80
2019-02-18T12:07:38.413Z,31.60
2019-02-18T12:10:08.631Z,31.90
2019-02-18T12:12:38.479Z,32.50
2019-02-18T12:15:08.883Z,32.50
2019-02-18T12:17:38.351Z,32.40
2019-02-18T12:20:09.470Z,32.30
2019-02-18T12:22:38.991Z,32.50
2019-02-18T12:25:11.921Z,32.20
2019-02-18T12:27:43.803Z,32.40
2019-02-18T12:30:13.460Z,32.90
2019-02-18T12:32:43.012Z,33.60
2019-02-18T12:35:12.787Z,34.10
2019-02-18T12:37:42.672Z,34.30
2019-02-18T12:40:11.946Z,34.10
2019-02-18T12:42:42.455Z,33.60
2019-02-18T12:45:12.235Z,33.90
2019-02-18T12:47:41.683Z,34.30
2019-02-18T12:50:11.258Z,34.50
2019-02-18T12:52:40.585Z,34.80
2019-02-18T12:55:10.052Z,34.30
2019-02-18T12:57:39.728Z,34.70
2019-02-18T13:00:09.643Z,35.20
2019-02-18T13:02:44.404Z,35.50
2019-02-18T13:05:10.461Z,35.40
2019-02-18T13:07:39.671Z,35.00
2019-02-18T13:10:09.276Z,34.70
2019-02-18T13:12:38.664Z,35.40
2019-02-18T13:15:09.726Z,35.20
2019-02-18T13:17:39.261Z,35.00
2019-02-18T13:20:09.040Z,34.70
2019-02-18T13:22:39.075Z,34.30
2019-02-18T13:25:08.512Z,33.50
2019-02-18T13:27:37.777Z,32.80
2019-02-18T13:30:10.479Z,31.60
2019-02-18T13:32:39.751Z,30.70
2019-02-18T13:35:08.881Z,29.60
2019-02-18T13:37:38.117Z,28.80
2019-02-18T13:40:07.757Z,29.00
2019-02-18T13:42:36.980Z,28.50
2019-02-18T13:45:06.647Z,27.30
2019-02-18T13:47:37.328Z,27.90
2019-02-18T13:50:07.139Z,28.10
2019-02-18T13:52:36.326Z,27.90
2019-02-18T13:55:06.240Z,28.50
2019-02-18T13:57:35.394Z,28.40
2019-02-18T14:00:05.144Z,29.10
2019-02-18T14:02:34.295Z,29.50
2019-02-18T14:05:03.590Z,28.80
2019-02-18T14:07:32.900Z,28.20
2019-02-18T14:10:02.093Z,27.40
2019-02-18T14:12:31.647Z,27.10
2019-02-18T14:15:00.894Z,26.20
2019-02-18T14:17:30.387Z,25.60
2019-02-18T14:19:59.572Z,25.80
2019-02-18T14:22:28.692Z,25.70
2019-02-18T14:24:58.372Z,26.00
2019-02-18T14:27:27.974Z,26.90
2019-02-18T14:29:57.122Z,27.00
2019-02-18T14:32:26.269Z,26.80
2019-02-18T14:34:55.575Z,26.00
2019-02-18T14:37:25.024Z,25.10
2019-02-18T14:39:54.534Z,23.90
2019-02-18T14:42:24.706Z,22.60
2019-02-18T14:44:54.243Z,21.40
2019-02-18T14:47:24.421Z,20.70
2019-02-18T14:49:53.555Z,20.40
2019-02-18T14:52:22.844Z,20.40
2019-02-18T14:54:52.063Z,21.40
2019-02-18T14:57:21.982Z,22.70
2019-02-18T14:59:51.147Z,23.30
2019-02-18T15:02:20.319Z,23.30
2019-02-18T15:04:49.476Z,22.20
2019-02-18T15:07:18.658Z,21.30
2019-02-18T15:09:48.198Z,20.70
2019-02-18T15:12:18.093Z,19.70
2019-02-18T15:14:47.323Z,18.80
2019-02-18T15:17:16.676Z,18.20
2019-02-18T15:19:46.282Z,17.70
2019-02-18T15:22:15.509Z,17.20
2019-02-18T15:24:44.827Z,16.80
2019-02-18T15:27:14.624Z,16.50
2019-02-18T15:29:43.868Z,16.50
2019-02-18T15:32:13.002Z,17.00
2019-02-18T15:34:42.259Z,18.30
2019-02-18T15:37:11.805Z,19.10
2019-02-18T15:39:41.146Z,18.70
2019-02-18T15:42:10.979Z,18.20
2019-02-18T15:44:40.207Z,18.00
2019-02-18T15:47:09.330Z,18.30
2019-02-18T15:49:39.076Z,18.80
2019-02-18T15:52:09.320Z,18.50
2019-02-18T15:54:38.524Z,18.20
2019-02-18T15:57:07.934Z,18.20
2019-02-18T15:59:37.124Z,18.80
2019-02-18T16:02:08.406Z,18.60
2019-02-18T16:04:37.586Z,17.90
2019-02-18T16:07:06.820Z,17.20
2019-02-18T16:09:36.094Z,16.40
2019-02-18T16:12:05.314Z,15.60
2019-02-18T16:14:34.595Z,15.00
2019-02-18T16:17:03.913Z,14.50
2019-02-18T16:19:33.412Z,14.00
2019-02-18T16:22:02.699Z,13.60
2019-02-18T16:24:32.195Z,13.30
2019-02-18T16:27:01.407Z,13.10
2019-02-18T16:29:30.655Z,13.00
2019-02-18T16:32:01.306Z,13.10
2019-02-18T16:34:30.682Z,13.50
2019-02-18T16:36:59.993Z,13.90
2019-02-18T16:39:29.273Z,13.80
2019-02-18T16:41:58.552Z,13.40
2019-02-18T16:44:28.170Z,12.90
2019-02-18T16:46:57.347Z,12.40
2019-02-18T16:49:27.130Z,12.00
2019-02-18T16:51:56.887Z,11.60
2019-02-18T16:54:26.439Z,11.30
2019-02-18T16:56:55.705Z,11.10
2019-02-18T16:59:25.178Z,10.90
2019-02-18T17:01:54.915Z,10.70
2019-02-18T17:04:24.063Z,10.60
2019-02-18T17:06:53.314Z,10.50
2019-02-18T17:09:22.970Z,10.30
2019-02-18T17:11:52.227Z,10.20
2019-02-18T17:14:21.732Z,10.20
2019-02-18T17:16:51.000Z,10.10
2019-02-18T17:19:20.159Z,10.10
2019-02-18T17:21:49.664Z,10.00
2019-02-18T17:24:19.124Z,9.90
2019-02-18T17:26:48.723Z,9.80
2019-02-18T17:29:18.034Z,9.70
2019-02-18T17:31:47.973Z,9.60
2019-02-18T17:34:17.143Z,9.50
2019-02-18T17:36:47.114Z,9.40
2019-02-18T17:39:16.941Z,9.40
2019-02-18T17:41:46.533Z,9.30
2019-02-18T17:44:20.230Z,9.30
2019-02-18T17:46:46.877Z,9.20
2019-02-18T17:49:16.126Z,9.20
2019-02-18T17:51:46.371Z,9.20
2019-02-18T17:54:15.843Z,9.20
2019-02-18T17:56:45.099Z,9.20
2019-02-18T17:59:14.253Z,9.00
2019-02-18T18:01:43.465Z,8.90
2019-02-18T18:04:12.675Z,8.90
2019-02-18T18:06:42.321Z,8.80
2019-02-18T18:09:12.166Z,8.80
2019-02-18T18:11:41.430Z,8.80
2019-02-18T18:14:10.798Z,8.80
2019-02-18T18:16:40.051Z,8.90
2019-02-18T18:19:09.692Z,9.00
2019-02-18T18:21:39.021Z,9.00
2019-02-18T18:24:09.394Z,9.00
2019-02-18T18:26:39.270Z,8.90
2019-02-18T18:29:08.759Z,8.90
2019-02-18T18:31:38.347Z,8.80
2019-02-18T18:34:07.524Z,8.80
2019-02-18T18:36:37.043Z,8.80
2019-02-18T18:39:06.362Z,8.90
2019-02-18T18:41:35.575Z,8.80
2019-02-18T18:44:04.833Z,8.80
2019-02-18T18:46:34.391Z,8.80
2019-02-18T18:49:03.851Z,8.70
2019-02-18T18:51:33.444Z,8.60
2019-02-18T18:54:02.639Z,8.50
2019-02-18T18:56:32.200Z,8.40
2019-02-18T18:59:01.473Z,8.30
2019-02-18T19:01:30.631Z,8.20
2019-02-18T19:03:59.929Z,8.10
2019-02-18T19:06:29.804Z,7.90
2019-02-18T19:08:59.339Z,7.80
2019-02-18T19:11:30.145Z,7.70
2019-02-18T19:13:59.824Z,7.70
2019-02-18T19:16:30.306Z,7.60
2019-02-18T19:18:59.569Z,7.50
2019-02-18T19:21:28.818Z,7.30
2019-02-18T19:23:58.400Z,7.20
2019-02-18T19:26:27.922Z,7.10
2019-02-18T19:28:57.167Z,7.10
2019-02-18T19:31:26.772Z,7.10
2019-02-18T19:33:59.351Z,7.10
2019-02-18T19:36:28.912Z,7.00
2019-02-18T19:38:58.377Z,7.00
2019-02-18T19:41:28.717Z,6.90
2019-02-18T19:43:58.460Z,6.90
2019-02-18T19:46:27.884Z,6.80
2019-02-18T19:48:57.729Z,6.80
2019-02-18T19:51:27.041Z,6.80
2019-02-18T19:53:56.707Z,6.80
2019-02-18T19:56:26.470Z,6.80
2019-02-18T19:58:56.334Z,6.80
2019-02-18T20:01:26.133Z,6.80
2019-02-18T20:03:55.623Z,6.80
2019-02-18T20:06:25.346Z,6.80
2019-02-18T20:08:54.941Z,6.80
2019-02-18T20:11:24.240Z,6.80
2019-02-18T20:13:58.916Z,6.80
2019-02-18T20:16:24.971Z,6.90
2019-02-18T20:18:54.491Z,6.90
2019-02-18T20:21:23.761Z,7.00
2019-02-18T20:23:53.618Z,7.10
2019-02-18T20:26:23.449Z,7.10
2019-02-18T20:28:53.163Z,7.10
2019-02-18T20:31:23.141Z,7.20
2019-02-18T20:33:52.405Z,7.20
2019-02-18T20:36:32.004Z,7.20
2019-02-18T20:39:01.677Z,7.10
2019-02-18T20:41:31.368Z,7.10
2019-02-18T20:44:07.329Z,7.00
2019-02-18T20:46:31.739Z,6.90
2019-02-18T20:49:01.112Z,6.90
2019-02-18T20:51:30.604Z,6.80
2019-02-18T20:53:59.917Z,6.80
2019-02-18T20:56:29.499Z,6.70
2019-02-18T20:58:58.963Z,6.60
2019-02-18T21:01:28.239Z,6.50
2019-02-18T21:03:57.650Z,6.40
2019-02-18T21:06:27.012Z,6.40
2019-02-18T21:08:56.674Z,6.40
2019-02-18T21:11:26.035Z,6.40
2019-02-18T21:13:55.363Z,6.40
2019-02-18T21:16:24.683Z,6.40
2019-02-18T21:18:54.012Z,6.30
2019-02-18T21:21:23.325Z,6.10
2019-02-18T21:23:52.798Z,5.90
2019-02-18T21:26:22.077Z,5.60
2019-02-18T21:28:51.893Z,5.40
2019-02-18T21:31:21.177Z,5.30
2019-02-18T21:33:51.429Z,5.20
2019-02-18T21:36:20.743Z,5.10
2019-02-18T21:38:50.489Z,5.10
2019-02-18T21:41:19.772Z,5.10
2019-02-18T21:43:49.291Z,5.20
2019-02-18T21:46:18.598Z,5.20
2019-02-18T21:48:52.777Z,5.20
2019-02-18T21:51:21.951Z,5.30
2019-02-18T21:53:51.186Z,5.30
2019-02-18T21:56:20.506Z,5.40
2019-02-18T21:58:50.275Z,5.50
2019-02-18T22:01:20.241Z,5.60
2019-02-18T22:03:50.185Z,5.70
2019-02-18T22:06:20.160Z,5.70
2019-02-18T22:08:49.835Z,5.70
2019-02-18T22:11:19.044Z,5.70
2019-02-18T22:13:48.331Z,5.70
2019-02-18T22:16:18.628Z,5.70
2019-02-18T22:18:47.777Z,5.70
2019-02-18T22:21:16.947Z,5.70
2019-02-18T22:23:46.471Z,5.80
2019-02-18T22:26:15.737Z,5.90
2019-02-18T22:28:44.963Z,5.80
2019-02-18T22:31:14.123Z,5.70
2019-02-18T22:33:43.595Z,5.50
2019-02-18T22:36:12.923Z,5.40
2019-02-18T22:38:42.442Z,5.30
2019-02-18T22:41:11.744Z,5.20
2019-02-18T22:43:40.969Z,5.20
2019-02-18T22:46:10.540Z,5.20
2019-02-18T22:48:39.759Z,5.20
2019-02-18T22:51:09.266Z,5.20
2019-02-18T22:53:38.860Z,5.20
2019-02-18T22:56:08.324Z,5.20
2019-02-18T22:58:37.526Z,5.20
2019-02-18T23:01:08.097Z,5.30
2019-02-18T23:03:37.242Z,5.30
2019-02-18T23:06:06.470Z,5.40
2019-02-18T23:08:35.982Z,5.30
2019-02-18T23:11:05.168Z,5.30
2019-02-18T23:13:34.730Z,5.30
2019-02-18T23:16:04.054Z,5.20
2019-02-18T23:18:33.358Z,5.20
2019-02-18T23:21:02.627Z,5.20
2019-02-18T23:23:31.818Z,5.20
2019-02-18T23:26:01.609Z,5.20
2019-02-18T23:28:30.727Z,5.20
2019-02-18T23:31:00.032Z,5.20
2019-02-18T23:33:29.179Z,5.20
2019-02-18T23:35:58.432Z,5.20
2019-02-18T23:38:27.614Z,5.20
2019-02-18T23:40:56.832Z,5.20
2019-02-18T23:43:26.060Z,5.20
2019-02-18T23:45:55.269Z,5.20
2019-02-18T23:48:25.629Z,5.10
2019-02-18T23:50:54.750Z,5.10
2019-02-18T23:53:24.219Z,5.00
2019-02-18T23:55:53.709Z,5.00
2019-02-18T23:58:23.218Z,5.00
